sensor_id;sensor_type;location;lat;lon;timestamp;P1;durP1;ratioP1;P2;durP2;ratioP2
61407;SDS011;47274;43.054;25.146;2023-05-02T00:00:44;7.55;;;4.55;;
61407;SDS011;47274;43.054;25.146;2023-05-02T00:03:10;10.68;;;5.50;;
61407;SDS011;47274;43.054;25.146;2023-05-02T00:05:37;10.60;;;5.00;;
61407;SDS011;47274;43.054;25.146;2023-05-02T00:08:02;9.45;;;4.85;;
61407;SDS011;47274;43.054;25.146;2023-05-02T00:10:29;7.43;;;4.55;;
61407;SDS011;47274;43.054;25.146;2023-05-02T00:12:54;9.68;;;4.82;;
61407;SDS011;47274;43.054;25.146;2023-05-02T00:15:20;12.40;;;5.78;;
61407;SDS011;47274;43.054;25.146;2023-05-02T00:17:46;13.35;;;5.80;;
61407;SDS011;47274;43.054;25.146;2023-05-02T00:20:12;8.93;;;4.97;;
61407;SDS011;47274;43.054;25.146;2023-05-02T00:22:38;9.93;;;5.05;;
61407;SDS011;47274;43.054;25.146;2023-05-02T00:25:04;9.02;;;4.93;;
61407;SDS011;47274;43.054;25.146;2023-05-02T00:27:30;9.93;;;5.25;;
61407;SDS011;47274;43.054;25.146;2023-05-02T00:29:56;13.23;;;6.03;;
61407;SDS011;47274;43.054;25.146;2023-05-02T00:32:24;7.78;;;4.75;;
61407;SDS011;47274;43.054;25.146;2023-05-02T00:34:51;9.75;;;5.35;;
61407;SDS011;47274;43.054;25.146;2023-05-02T00:37:17;8.85;;;5.07;;
61407;SDS011;47274;43.054;25.146;2023-05-02T00:39:43;8.93;;;5.40;;
61407;SDS011;47274;43.054;25.146;2023-05-02T00:42:09;10.63;;;5.38;;
61407;SDS011;47274;43.054;25.146;2023-05-02T00:44:35;13.40;;;5.70;;
61407;SDS011;47274;43.054;25.146;2023-05-02T00:47:01;8.70;;;4.82;;
61407;SDS011;47274;43.054;25.146;2023-05-02T00:49:27;13.88;;;6.43;;
61407;SDS011;47274;43.054;25.146;2023-05-02T00:51:53;9.93;;;5.47;;
61407;SDS011;47274;43.054;25.146;2023-05-02T00:54:19;10.25;;;5.10;;
61407;SDS011;47274;43.054;25.146;2023-05-02T00:56:45;9.95;;;5.32;;
61407;SDS011;47274;43.054;25.146;2023-05-02T00:59:11;11.23;;;5.68;;
61407;SDS011;47274;43.054;25.146;2023-05-02T01:04:30;8.85;;;5.10;;
61407;SDS011;47274;43.054;25.146;2023-05-02T01:12:47;12.60;;;5.20;;
61407;SDS011;47274;43.054;25.146;2023-05-02T01:15:24;7.28;;;4.60;;
61407;SDS011;47274;43.054;25.146;2023-05-02T01:17:51;9.20;;;4.78;;
61407;SDS011;47274;43.054;25.146;2023-05-02T01:20:22;11.90;;;5.18;;
61407;SDS011;47274;43.054;25.146;2023-05-02T01:22:51;11.80;;;5.32;;
61407;SDS011;47274;43.054;25.146;2023-05-02T01:25:36;9.95;;;4.60;;
61407;SDS011;47274;43.054;25.146;2023-05-02T01:31:24;9.27;;;5.60;;
61407;SDS011;47274;43.054;25.146;2023-05-02T01:33:52;8.85;;;4.90;;
61407;SDS011;47274;43.054;25.146;2023-05-02T01:36:20;8.82;;;4.78;;
61407;SDS011;47274;43.054;25.146;2023-05-02T01:38:51;10.23;;;5.13;;
61407;SDS011;47274;43.054;25.146;2023-05-02T01:41:19;10.07;;;5.25;;
61407;SDS011;47274;43.054;25.146;2023-05-02T01:43:46;12.10;;;5.07;;
61407;SDS011;47274;43.054;25.146;2023-05-02T01:46:13;10.85;;;4.82;;
61407;SDS011;47274;43.054;25.146;2023-05-02T01:48:40;11.25;;;5.03;;
61407;SDS011;47274;43.054;25.146;2023-05-02T01:51:10;12.45;;;4.90;;
61407;SDS011;47274;43.054;25.146;2023-05-02T01:53:38;10.52;;;5.10;;
61407;SDS011;47274;43.054;25.146;2023-05-02T01:56:05;12.38;;;4.90;;
61407;SDS011;47274;43.054;25.146;2023-05-02T01:58:31;10.25;;;4.82;;
61407;SDS011;47274;43.054;25.146;2023-05-02T02:01:00;10.98;;;4.88;;
61407;SDS011;47274;43.054;25.146;2023-05-02T02:03:28;10.15;;;4.40;;
61407;SDS011;47274;43.054;25.146;2023-05-02T02:05:55;12.75;;;4.93;;
61407;SDS011;47274;43.054;25.146;2023-05-02T02:08:23;10.15;;;5.03;;
61407;SDS011;47274;43.054;25.146;2023-05-02T02:10:51;12.32;;;5.05;;
61407;SDS011;47274;43.054;25.146;2023-05-02T02:13:33;8.95;;;4.60;;
61407;SDS011;47274;43.054;25.146;2023-05-02T02:16:03;10.25;;;4.90;;
61407;SDS011;47274;43.054;25.146;2023-05-02T02:18:34;10.88;;;4.82;;
61407;SDS011;47274;43.054;25.146;2023-05-02T02:21:02;13.70;;;5.53;;
61407;SDS011;47274;43.054;25.146;2023-05-02T02:23:32;12.48;;;4.65;;
61407;SDS011;47274;43.054;25.146;2023-05-02T02:26:01;8.75;;;4.38;;
61407;SDS011;47274;43.054;25.146;2023-05-02T02:28:29;12.48;;;5.05;;
61407;SDS011;47274;43.054;25.146;2023-05-02T02:30:55;10.23;;;4.60;;
61407;SDS011;47274;43.054;25.146;2023-05-02T02:33:21;9.82;;;4.60;;
61407;SDS011;47274;43.054;25.146;2023-05-02T02:35:56;12.85;;;4.82;;
61407;SDS011;47274;43.054;25.146;2023-05-02T02:38:35;10.52;;;4.70;;
61407;SDS011;47274;43.054;25.146;2023-05-02T02:41:42;13.40;;;4.93;;
61407;SDS011;47274;43.054;25.146;2023-05-02T02:44:24;14.85;;;5.07;;
61407;SDS011;47274;43.054;25.146;2023-05-02T02:53:01;12.00;;;5.05;;
61407;SDS011;47274;43.054;25.146;2023-05-02T03:01:26;8.60;;;4.38;;
61407;SDS011;47274;43.054;25.146;2023-05-02T03:03:55;9.35;;;4.70;;
61407;SDS011;47274;43.054;25.146;2023-05-02T03:06:21;8.88;;;4.40;;
61407;SDS011;47274;43.054;25.146;2023-05-02T03:08:50;9.52;;;4.68;;
61407;SDS011;47274;43.054;25.146;2023-05-02T03:11:19;11.70;;;4.90;;
61407;SDS011;47274;43.054;25.146;2023-05-02T03:13:45;11.52;;;5.28;;
61407;SDS011;47274;43.054;25.146;2023-05-02T03:19:14;11.68;;;4.50;;
61407;SDS011;47274;43.054;25.146;2023-05-02T03:21:39;8.18;;;4.13;;
61407;SDS011;47274;43.054;25.146;2023-05-02T03:24:14;7.32;;;4.03;;
61407;SDS011;47274;43.054;25.146;2023-05-02T03:26:40;9.70;;;4.50;;
61407;SDS011;47274;43.054;25.146;2023-05-02T03:29:08;11.75;;;4.88;;
61407;SDS011;47274;43.054;25.146;2023-05-02T03:31:37;9.15;;;4.45;;
61407;SDS011;47274;43.054;25.146;2023-05-02T03:34:04;11.50;;;5.00;;
61407;SDS011;47274;43.054;25.146;2023-05-02T03:36:30;10.30;;;4.22;;
61407;SDS011;47274;43.054;25.146;2023-05-02T03:38:56;10.20;;;4.70;;
61407;SDS011;47274;43.054;25.146;2023-05-02T03:41:22;10.20;;;5.20;;
61407;SDS011;47274;43.054;25.146;2023-05-02T03:43:58;21.08;;;10.20;;
61407;SDS011;47274;43.054;25.146;2023-05-02T03:46:25;20.98;;;9.82;;
61407;SDS011;47274;43.054;25.146;2023-05-02T03:48:52;17.00;;;7.07;;
61407;SDS011;47274;43.054;25.146;2023-05-02T03:51:18;13.30;;;5.90;;
61407;SDS011;47274;43.054;25.146;2023-05-02T03:53:48;11.73;;;4.88;;
61407;SDS011;47274;43.054;25.146;2023-05-02T03:56:17;9.68;;;4.85;;
61407;SDS011;47274;43.054;25.146;2023-05-02T03:58:56;11.50;;;4.47;;
61407;SDS011;47274;43.054;25.146;2023-05-02T04:01:24;9.23;;;4.72;;
61407;SDS011;47274;43.054;25.146;2023-05-02T04:03:52;9.35;;;4.50;;
61407;SDS011;47274;43.054;25.146;2023-05-02T04:06:21;10.07;;;4.38;;
61407;SDS011;47274;43.054;25.146;2023-05-02T04:08:53;9.52;;;4.30;;
61407;SDS011;47274;43.054;25.146;2023-05-02T04:11:19;10.80;;;3.88;;
61407;SDS011;47274;43.054;25.146;2023-05-02T04:13:45;7.57;;;3.88;;
61407;SDS011;47274;43.054;25.146;2023-05-02T04:16:11;10.65;;;4.40;;
61407;SDS011;47274;43.054;25.146;2023-05-02T04:18:38;7.10;;;4.13;;
61407;SDS011;47274;43.054;25.146;2023-05-02T04:21:06;11.77;;;4.70;;
61407;SDS011;47274;43.054;25.146;2023-05-02T04:23:35;11.05;;;4.30;;
61407;SDS011;47274;43.054;25.146;2023-05-02T04:26:02;7.95;;;3.90;;
61407;SDS011;47274;43.054;25.146;2023-05-02T04:28:39;10.13;;;4.22;;
61407;SDS011;47274;43.054;25.146;2023-05-02T04:31:05;11.63;;;4.30;;
61407;SDS011;47274;43.054;25.146;2023-05-02T04:33:31;12.68;;;4.10;;
61407;SDS011;47274;43.054;25.146;2023-05-02T04:35:58;9.10;;;3.90;;
61407;SDS011;47274;43.054;25.146;2023-05-02T04:38:24;9.57;;;4.40;;
61407;SDS011;47274;43.054;25.146;2023-05-02T04:40:50;11.57;;;5.25;;
61407;SDS011;47274;43.054;25.146;2023-05-02T04:43:26;11.82;;;4.03;;
61407;SDS011;47274;43.054;25.146;2023-05-02T04:45:59;8.90;;;4.20;;
61407;SDS011;47274;43.054;25.146;2023-05-02T04:48:29;17.00;;;4.25;;
61407;SDS011;47274;43.054;25.146;2023-05-02T04:50:55;9.38;;;3.60;;
61407;SDS011;47274;43.054;25.146;2023-05-02T04:53:21;11.10;;;3.90;;
61407;SDS011;47274;43.054;25.146;2023-05-02T04:55:48;11.88;;;3.88;;
61407;SDS011;47274;43.054;25.146;2023-05-02T04:58:14;8.18;;;3.80;;
61407;SDS011;47274;43.054;25.146;2023-05-02T05:00:42;12.00;;;4.20;;
61407;SDS011;47274;43.054;25.146;2023-05-02T05:03:08;7.28;;;3.55;;
61407;SDS011;47274;43.054;25.146;2023-05-02T05:05:34;10.15;;;3.72;;
61407;SDS011;47274;43.054;25.146;2023-05-02T05:08:01;6.18;;;3.45;;
61407;SDS011;47274;43.054;25.146;2023-05-02T05:10:31;10.75;;;3.80;;
61407;SDS011;47274;43.054;25.146;2023-05-02T05:12:57;8.82;;;3.80;;
61407;SDS011;47274;43.054;25.146;2023-05-02T05:15:23;8.55;;;3.90;;
61407;SDS011;47274;43.054;25.146;2023-05-02T05:17:54;8.97;;;4.00;;
61407;SDS011;47274;43.054;25.146;2023-05-02T05:20:21;10.02;;;3.95;;
61407;SDS011;47274;43.054;25.146;2023-05-02T05:22:49;9.23;;;3.88;;
61407;SDS011;47274;43.054;25.146;2023-05-02T05:25:15;7.95;;;3.88;;
61407;SDS011;47274;43.054;25.146;2023-05-02T05:27:43;9.30;;;3.88;;
61407;SDS011;47274;43.054;25.146;2023-05-02T05:30:09;8.98;;;3.63;;
61407;SDS011;47274;43.054;25.146;2023-05-02T05:32:36;8.70;;;3.60;;
61407;SDS011;47274;43.054;25.146;2023-05-02T05:35:01;8.68;;;3.70;;
61407;SDS011;47274;43.054;25.146;2023-05-02T05:37:29;9.95;;;3.70;;
61407;SDS011;47274;43.054;25.146;2023-05-02T05:39:57;7.68;;;3.65;;
61407;SDS011;47274;43.054;25.146;2023-05-02T05:42:23;5.90;;;3.42;;
61407;SDS011;47274;43.054;25.146;2023-05-02T05:44:54;7.82;;;3.33;;
61407;SDS011;47274;43.054;25.146;2023-05-02T05:47:20;8.10;;;3.53;;
61407;SDS011;47274;43.054;25.146;2023-05-02T05:49:51;10.05;;;3.70;;
61407;SDS011;47274;43.054;25.146;2023-05-02T05:52:17;7.43;;;3.50;;
61407;SDS011;47274;43.054;25.146;2023-05-02T05:54:43;5.57;;;3.35;;
61407;SDS011;47274;43.054;25.146;2023-05-02T05:57:09;5.90;;;3.30;;
61407;SDS011;47274;43.054;25.146;2023-05-02T05:59:35;8.68;;;3.50;;
61407;SDS011;47274;43.054;25.146;2023-05-02T06:02:02;9.52;;;4.40;;
61407;SDS011;47274;43.054;25.146;2023-05-02T06:04:28;8.52;;;3.70;;
61407;SDS011;47274;43.054;25.146;2023-05-02T06:06:54;7.88;;;3.47;;
61407;SDS011;47274;43.054;25.146;2023-05-02T06:09:20;7.15;;;3.38;;
61407;SDS011;47274;43.054;25.146;2023-05-02T06:11:46;7.47;;;3.20;;
61407;SDS011;47274;43.054;25.146;2023-05-02T06:14:12;9.10;;;3.20;;
61407;SDS011;47274;43.054;25.146;2023-05-02T06:16:38;10.23;;;3.88;;
61407;SDS011;47274;43.054;25.146;2023-05-02T06:19:05;5.82;;;3.33;;
61407;SDS011;47274;43.054;25.146;2023-05-02T06:21:31;8.73;;;3.20;;
61407;SDS011;47274;43.054;25.146;2023-05-02T06:23:56;5.85;;;3.30;;
61407;SDS011;47274;43.054;25.146;2023-05-02T06:26:22;10.75;;;3.33;;
61407;SDS011;47274;43.054;25.146;2023-05-02T06:28:48;6.93;;;3.33;;
61407;SDS011;47274;43.054;25.146;2023-05-02T06:31:14;7.57;;;3.40;;
61407;SDS011;47274;43.054;25.146;2023-05-02T06:33:40;7.32;;;3.50;;
61407;SDS011;47274;43.054;25.146;2023-05-02T06:36:07;9.80;;;3.40;;
61407;SDS011;47274;43.054;25.146;2023-05-02T06:38:32;10.07;;;3.65;;
61407;SDS011;47274;43.054;25.146;2023-05-02T06:40:58;7.65;;;3.30;;
61407;SDS011;47274;43.054;25.146;2023-05-02T06:43:24;6.65;;;3.20;;
61407;SDS011;47274;43.054;25.146;2023-05-02T06:45:53;4.80;;;3.00;;
61407;SDS011;47274;43.054;25.146;2023-05-02T06:48:20;7.97;;;3.60;;
61407;SDS011;47274;43.054;25.146;2023-05-02T06:50:47;9.05;;;3.35;;
61407;SDS011;47274;43.054;25.146;2023-05-02T06:53:13;7.93;;;3.30;;
61407;SDS011;47274;43.054;25.146;2023-05-02T06:55:39;6.72;;;3.50;;
61407;SDS011;47274;43.054;25.146;2023-05-02T06:58:05;5.45;;;3.10;;
61407;SDS011;47274;43.054;25.146;2023-05-02T07:00:31;10.50;;;4.30;;
61407;SDS011;47274;43.054;25.146;2023-05-02T07:02:56;9.20;;;3.25;;
61407;SDS011;47274;43.054;25.146;2023-05-02T07:05:22;11.55;;;3.30;;
61407;SDS011;47274;43.054;25.146;2023-05-02T07:07:48;12.43;;;5.13;;
61407;SDS011;47274;43.054;25.146;2023-05-02T07:10:14;12.48;;;4.03;;
61407;SDS011;47274;43.054;25.146;2023-05-02T07:12:39;15.10;;;5.63;;
61407;SDS011;47274;43.054;25.146;2023-05-02T07:15:05;8.95;;;4.15;;
61407;SDS011;47274;43.054;25.146;2023-05-02T07:17:31;12.60;;;3.80;;
61407;SDS011;47274;43.054;25.146;2023-05-02T07:19:57;11.90;;;4.00;;
61407;SDS011;47274;43.054;25.146;2023-05-02T07:22:23;12.32;;;4.55;;
61407;SDS011;47274;43.054;25.146;2023-05-02T07:24:55;9.00;;;3.45;;
61407;SDS011;47274;43.054;25.146;2023-05-02T07:27:25;7.53;;;3.10;;
61407;SDS011;47274;43.054;25.146;2023-05-02T07:29:51;8.48;;;3.40;;
61407;SDS011;47274;43.054;25.146;2023-05-02T07:32:16;5.25;;;3.03;;
61407;SDS011;47274;43.054;25.146;2023-05-02T07:34:42;5.85;;;3.00;;
61407;SDS011;47274;43.054;25.146;2023-05-02T07:37:08;6.85;;;3.30;;
61407;SDS011;47274;43.054;25.146;2023-05-02T07:39:34;9.73;;;3.78;;
61407;SDS011;47274;43.054;25.146;2023-05-02T07:42:00;6.97;;;3.30;;
61407;SDS011;47274;43.054;25.146;2023-05-02T07:44:27;12.18;;;4.10;;
61407;SDS011;47274;43.054;25.146;2023-05-02T07:46:53;7.60;;;3.20;;
61407;SDS011;47274;43.054;25.146;2023-05-02T07:49:19;5.13;;;2.80;;
61407;SDS011;47274;43.054;25.146;2023-05-02T07:51:45;7.80;;;3.00;;
61407;SDS011;47274;43.054;25.146;2023-05-02T07:54:20;4.93;;;2.90;;
61407;SDS011;47274;43.054;25.146;2023-05-02T07:56:47;7.45;;;3.05;;
61407;SDS011;47274;43.054;25.146;2023-05-02T07:59:15;5.35;;;2.85;;
61407;SDS011;47274;43.054;25.146;2023-05-02T08:01:41;5.22;;;3.15;;
61407;SDS011;47274;43.054;25.146;2023-05-02T08:04:07;8.25;;;2.70;;
61407;SDS011;47274;43.054;25.146;2023-05-02T08:06:36;4.13;;;3.13;;
61407;SDS011;47274;43.054;25.146;2023-05-02T08:09:02;9.15;;;3.97;;
61407;SDS011;47274;43.054;25.146;2023-05-02T08:11:28;6.63;;;2.90;;
61407;SDS011;47274;43.054;25.146;2023-05-02T08:13:54;6.28;;;2.92;;
61407;SDS011;47274;43.054;25.146;2023-05-02T08:16:20;3.63;;;2.60;;
61407;SDS011;47274;43.054;25.146;2023-05-02T08:18:46;5.93;;;2.78;;
61407;SDS011;47274;43.054;25.146;2023-05-02T08:21:12;7.95;;;2.75;;
61407;SDS011;47274;43.054;25.146;2023-05-02T08:23:39;5.85;;;3.03;;
61407;SDS011;47274;43.054;25.146;2023-05-02T08:26:06;7.35;;;3.00;;
61407;SDS011;47274;43.054;25.146;2023-05-02T08:28:35;5.45;;;2.90;;
61407;SDS011;47274;43.054;25.146;2023-05-02T08:31:01;7.80;;;3.42;;
61407;SDS011;47274;43.054;25.146;2023-05-02T08:33:27;6.65;;;2.92;;
61407;SDS011;47274;43.054;25.146;2023-05-02T08:35:52;6.32;;;2.92;;
61407;SDS011;47274;43.054;25.146;2023-05-02T08:38:18;7.68;;;3.00;;
61407;SDS011;47274;43.054;25.146;2023-05-02T08:40:44;7.20;;;2.95;;
61407;SDS011;47274;43.054;25.146;2023-05-02T08:43:10;3.72;;;2.70;;
61407;SDS011;47274;43.054;25.146;2023-05-02T08:45:41;5.82;;;2.92;;
61407;SDS011;47274;43.054;25.146;2023-05-02T08:48:08;5.38;;;2.95;;
61407;SDS011;47274;43.054;25.146;2023-05-02T08:50:37;6.80;;;2.97;;
61407;SDS011;47274;43.054;25.146;2023-05-02T08:53:04;6.50;;;2.90;;
61407;SDS011;47274;43.054;25.146;2023-05-02T08:55:32;4.70;;;2.60;;
61407;SDS011;47274;43.054;25.146;2023-05-02T08:57:59;4.97;;;2.60;;
61407;SDS011;47274;43.054;25.146;2023-05-02T09:00:26;10.75;;;3.33;;
61407;SDS011;47274;43.054;25.146;2023-05-02T09:05:54;6.90;;;2.85;;
61407;SDS011;47274;43.054;25.146;2023-05-02T09:08:34;9.95;;;3.13;;
61407;SDS011;47274;43.054;25.146;2023-05-02T09:11:04;9.00;;;2.92;;
61407;SDS011;47274;43.054;25.146;2023-05-02T09:13:31;3.72;;;2.47;;
61407;SDS011;47274;43.054;25.146;2023-05-02T09:18:34;4.93;;;2.50;;
61407;SDS011;47274;43.054;25.146;2023-05-02T09:21:05;6.90;;;2.70;;
61407;SDS011;47274;43.054;25.146;2023-05-02T09:25:59;6.40;;;2.63;;
61407;SDS011;47274;43.054;25.146;2023-05-02T09:28:38;7.45;;;2.97;;
61407;SDS011;47274;43.054;25.146;2023-05-02T09:31:06;4.30;;;2.40;;
61407;SDS011;47274;43.054;25.146;2023-05-02T09:33:34;5.55;;;2.85;;
61407;SDS011;47274;43.054;25.146;2023-05-02T09:36:00;5.63;;;2.58;;
61407;SDS011;47274;43.054;25.146;2023-05-02T09:38:26;8.18;;;2.90;;
61407;SDS011;47274;43.054;25.146;2023-05-02T09:40:52;5.20;;;2.60;;
61407;SDS011;47274;43.054;25.146;2023-05-02T09:43:21;4.80;;;2.58;;
61407;SDS011;47274;43.054;25.146;2023-05-02T09:46:00;5.57;;;2.55;;
61407;SDS011;47274;43.054;25.146;2023-05-02T09:48:29;9.23;;;3.10;;
61407;SDS011;47274;43.054;25.146;2023-05-02T09:50:56;9.25;;;2.80;;
61407;SDS011;47274;43.054;25.146;2023-05-02T09:53:26;7.35;;;2.88;;
61407;SDS011;47274;43.054;25.146;2023-05-02T09:55:59;7.65;;;3.00;;
61407;SDS011;47274;43.054;25.146;2023-05-02T09:58:26;6.22;;;2.78;;
61407;SDS011;47274;43.054;25.146;2023-05-02T10:00:51;9.82;;;3.00;;
61407;SDS011;47274;43.054;25.146;2023-05-02T10:03:17;8.90;;;2.83;;
61407;SDS011;47274;43.054;25.146;2023-05-02T10:05:44;6.03;;;2.78;;
61407;SDS011;47274;43.054;25.146;2023-05-02T10:08:11;4.30;;;2.80;;
61407;SDS011;47274;43.054;25.146;2023-05-02T10:10:39;6.40;;;2.88;;
61407;SDS011;47274;43.054;25.146;2023-05-02T10:13:06;5.35;;;3.13;;
61407;SDS011;47274;43.054;25.146;2023-05-02T10:15:33;6.15;;;3.00;;
61407;SDS011;47274;43.054;25.146;2023-05-02T10:18:07;5.18;;;2.90;;
61407;SDS011;47274;43.054;25.146;2023-05-02T10:20:40;7.13;;;2.70;;
61407;SDS011;47274;43.054;25.146;2023-05-02T10:23:13;7.95;;;2.75;;
61407;SDS011;47274;43.054;25.146;2023-05-02T10:25:41;5.70;;;2.80;;
61407;SDS011;47274;43.054;25.146;2023-05-02T10:28:08;10.50;;;3.00;;
61407;SDS011;47274;43.054;25.146;2023-05-02T10:30:34;4.57;;;2.60;;
61407;SDS011;47274;43.054;25.146;2023-05-02T10:33:00;5.95;;;2.80;;
61407;SDS011;47274;43.054;25.146;2023-05-02T10:35:27;3.70;;;2.65;;
61407;SDS011;47274;43.054;25.146;2023-05-02T10:37:55;5.80;;;2.40;;
61407;SDS011;47274;43.054;25.146;2023-05-02T10:40:21;6.68;;;2.97;;
61407;SDS011;47274;43.054;25.146;2023-05-02T10:42:47;7.18;;;2.60;;
61407;SDS011;47274;43.054;25.146;2023-05-02T10:45:36;5.55;;;2.45;;
61407;SDS011;47274;43.054;25.146;2023-05-02T10:48:15;4.55;;;2.65;;
61407;SDS011;47274;43.054;25.146;2023-05-02T10:50:52;6.80;;;2.85;;
61407;SDS011;47274;43.054;25.146;2023-05-02T10:53:23;3.13;;;2.60;;
61407;SDS011;47274;43.054;25.146;2023-05-02T10:56:13;5.05;;;3.20;;
61407;SDS011;47274;43.054;25.146;2023-05-02T10:58:41;6.25;;;2.67;;
61407;SDS011;47274;43.054;25.146;2023-05-02T11:04:04;8.20;;;2.80;;
61407;SDS011;47274;43.054;25.146;2023-05-02T11:06:32;6.65;;;2.72;;
61407;SDS011;47274;43.054;25.146;2023-05-02T11:11:42;5.68;;;2.47;;
61407;SDS011;47274;43.054;25.146;2023-05-02T11:14:09;7.22;;;2.45;;
61407;SDS011;47274;43.054;25.146;2023-05-02T11:20:17;6.18;;;2.83;;
61407;SDS011;47274;43.054;25.146;2023-05-02T11:24:48;9.32;;;2.83;;
61407;SDS011;47274;43.054;25.146;2023-05-02T11:30:01;7.45;;;2.80;;
61407;SDS011;47274;43.054;25.146;2023-05-02T11:35:17;7.97;;;3.35;;
61407;SDS011;47274;43.054;25.146;2023-05-02T11:37:58;5.90;;;3.22;;
61407;SDS011;47274;43.054;25.146;2023-05-02T11:40:27;8.30;;;3.30;;
61407;SDS011;47274;43.054;25.146;2023-05-02T11:42:54;5.63;;;2.95;;
61407;SDS011;47274;43.054;25.146;2023-05-02T11:45:21;6.15;;;2.70;;
61407;SDS011;47274;43.054;25.146;2023-05-02T11:47:57;8.30;;;3.60;;
61407;SDS011;47274;43.054;25.146;2023-05-02T11:50:23;4.10;;;2.75;;
61407;SDS011;47274;43.054;25.146;2023-05-02T11:52:50;8.68;;;2.90;;
61407;SDS011;47274;43.054;25.146;2023-05-02T11:55:16;8.90;;;3.58;;
61407;SDS011;47274;43.054;25.146;2023-05-02T11:57:42;7.18;;;2.92;;
61407;SDS011;47274;43.054;25.146;2023-05-02T12:00:07;3.85;;;2.67;;
61407;SDS011;47274;43.054;25.146;2023-05-02T12:02:44;6.28;;;3.15;;
61407;SDS011;47274;43.054;25.146;2023-05-02T12:05:12;6.05;;;3.17;;
61407;SDS011;47274;43.054;25.146;2023-05-02T12:07:42;3.22;;;2.42;;
61407;SDS011;47274;43.054;25.146;2023-05-02T12:10:10;8.25;;;2.22;;
61407;SDS011;47274;43.054;25.146;2023-05-02T12:12:37;6.22;;;2.30;;
61407;SDS011;47274;43.054;25.146;2023-05-02T12:15:08;5.43;;;2.60;;
61407;SDS011;47274;43.054;25.146;2023-05-02T12:17:46;5.40;;;2.20;;
61407;SDS011;47274;43.054;25.146;2023-05-02T12:20:13;6.28;;;2.50;;
61407;SDS011;47274;43.054;25.146;2023-05-02T12:22:41;6.35;;;2.50;;
61407;SDS011;47274;43.054;25.146;2023-05-02T12:25:07;6.68;;;2.30;;
61407;SDS011;47274;43.054;25.146;2023-05-02T12:27:33;7.10;;;2.63;;
61407;SDS011;47274;43.054;25.146;2023-05-02T12:29:59;7.93;;;2.47;;
61407;SDS011;47274;43.054;25.146;2023-05-02T12:32:32;5.28;;;2.38;;
61407;SDS011;47274;43.054;25.146;2023-05-02T12:34:59;3.17;;;2.25;;
61407;SDS011;47274;43.054;25.146;2023-05-02T12:37:26;4.13;;;2.20;;
61407;SDS011;47274;43.054;25.146;2023-05-02T12:39:53;2.58;;;2.20;;
61407;SDS011;47274;43.054;25.146;2023-05-02T12:42:20;3.58;;;2.03;;
61407;SDS011;47274;43.054;25.146;2023-05-02T12:44:50;2.72;;;2.00;;
61407;SDS011;47274;43.054;25.146;2023-05-02T12:47:17;7.20;;;2.50;;
61407;SDS011;47274;43.054;25.146;2023-05-02T12:49:53;4.50;;;2.28;;
61407;SDS011;47274;43.054;25.146;2023-05-02T12:57:41;5.88;;;2.50;;
61407;SDS011;47274;43.054;25.146;2023-05-02T13:00:07;4.43;;;2.45;;
61407;SDS011;47274;43.054;25.146;2023-05-02T13:02:34;4.78;;;2.40;;
61407;SDS011;47274;43.054;25.146;2023-05-02T13:04:59;8.60;;;2.97;;
61407;SDS011;47274;43.054;25.146;2023-05-02T13:07:25;7.28;;;2.72;;
61407;SDS011;47274;43.054;25.146;2023-05-02T13:09:51;4.68;;;2.33;;
61407;SDS011;47274;43.054;25.146;2023-05-02T13:12:17;8.13;;;2.60;;
61407;SDS011;47274;43.054;25.146;2023-05-02T13:14:42;5.72;;;2.33;;
61407;SDS011;47274;43.054;25.146;2023-05-02T13:17:08;3.05;;;2.53;;
61407;SDS011;47274;43.054;25.146;2023-05-02T13:19:34;4.70;;;2.03;;
61407;SDS011;47274;43.054;25.146;2023-05-02T13:22:00;2.17;;;1.88;;
61407;SDS011;47274;43.054;25.146;2023-05-02T13:24:26;8.35;;;2.55;;
61407;SDS011;47274;43.054;25.146;2023-05-02T13:26:52;3.33;;;2.03;;
61407;SDS011;47274;43.054;25.146;2023-05-02T13:29:17;7.72;;;2.50;;
61407;SDS011;47274;43.054;25.146;2023-05-02T13:31:43;6.03;;;2.25;;
61407;SDS011;47274;43.054;25.146;2023-05-02T13:34:09;7.65;;;2.50;;
61407;SDS011;47274;43.054;25.146;2023-05-02T13:36:35;4.72;;;2.40;;
61407;SDS011;47274;43.054;25.146;2023-05-02T13:39:04;4.40;;;2.45;;
61407;SDS011;47274;43.054;25.146;2023-05-02T13:41:30;4.93;;;2.30;;
61407;SDS011;47274;43.054;25.146;2023-05-02T13:43:56;4.40;;;2.70;;
61407;SDS011;47274;43.054;25.146;2023-05-02T13:46:22;4.35;;;2.03;;
61407;SDS011;47274;43.054;25.146;2023-05-02T13:48:47;20.45;;;3.05;;
61407;SDS011;47274;43.054;25.146;2023-05-02T13:51:13;6.60;;;2.40;;
61407;SDS011;47274;43.054;25.146;2023-05-02T13:53:41;6.32;;;2.40;;
61407;SDS011;47274;43.054;25.146;2023-05-02T13:56:07;3.45;;;2.15;;
61407;SDS011;47274;43.054;25.146;2023-05-02T13:58:32;5.05;;;2.40;;
61407;SDS011;47274;43.054;25.146;2023-05-02T14:00:58;6.38;;;2.35;;
61407;SDS011;47274;43.054;25.146;2023-05-02T14:03:25;6.00;;;2.25;;
61407;SDS011;47274;43.054;25.146;2023-05-02T14:05:51;6.22;;;2.22;;
61407;SDS011;47274;43.054;25.146;2023-05-02T14:08:16;3.95;;;2.10;;
61407;SDS011;47274;43.054;25.146;2023-05-02T14:10:43;6.93;;;2.20;;
61407;SDS011;47274;43.054;25.146;2023-05-02T14:13:09;6.53;;;2.45;;
61407;SDS011;47274;43.054;25.146;2023-05-02T14:15:35;3.97;;;2.17;;
61407;SDS011;47274;43.054;25.146;2023-05-02T14:18:01;6.70;;;2.17;;
61407;SDS011;47274;43.054;25.146;2023-05-02T14:20:27;6.60;;;2.15;;
61407;SDS011;47274;43.054;25.146;2023-05-02T14:22:53;3.15;;;2.28;;
61407;SDS011;47274;43.054;25.146;2023-05-02T14:25:19;7.70;;;2.80;;
61407;SDS011;47274;43.054;25.146;2023-05-02T14:27:45;5.22;;;1.92;;
61407;SDS011;47274;43.054;25.146;2023-05-02T14:30:11;4.28;;;2.20;;
61407;SDS011;47274;43.054;25.146;2023-05-02T14:32:37;4.68;;;2.25;;
61407;SDS011;47274;43.054;25.146;2023-05-02T14:35:03;2.58;;;2.00;;
61407;SDS011;47274;43.054;25.146;2023-05-02T14:37:29;8.90;;;2.53;;
61407;SDS011;47274;43.054;25.146;2023-05-02T14:39:55;5.03;;;2.17;;
61407;SDS011;47274;43.054;25.146;2023-05-02T14:42:23;6.63;;;2.70;;
61407;SDS011;47274;43.054;25.146;2023-05-02T14:44:51;4.28;;;2.17;;
61407;SDS011;47274;43.054;25.146;2023-05-02T14:47:17;5.20;;;2.60;;
61407;SDS011;47274;43.054;25.146;2023-05-02T14:49:43;3.17;;;1.90;;
61407;SDS011;47274;43.054;25.146;2023-05-02T14:52:09;4.72;;;2.50;;
61407;SDS011;47274;43.054;25.146;2023-05-02T14:54:35;6.78;;;2.15;;
61407;SDS011;47274;43.054;25.146;2023-05-02T14:57:00;6.32;;;2.42;;
61407;SDS011;47274;43.054;25.146;2023-05-02T14:59:28;4.05;;;2.28;;
61407;SDS011;47274;43.054;25.146;2023-05-02T15:01:54;4.30;;;2.55;;
61407;SDS011;47274;43.054;25.146;2023-05-02T15:04:20;3.80;;;2.25;;
61407;SDS011;47274;43.054;25.146;2023-05-02T15:06:46;6.25;;;2.90;;
61407;SDS011;47274;43.054;25.146;2023-05-02T15:09:15;5.63;;;2.50;;
61407;SDS011;47274;43.054;25.146;2023-05-02T15:11:41;5.28;;;2.80;;
61407;SDS011;47274;43.054;25.146;2023-05-02T15:14:06;5.10;;;2.67;;
61407;SDS011;47274;43.054;25.146;2023-05-02T15:16:32;6.28;;;2.67;;
61407;SDS011;47274;43.054;25.146;2023-05-02T15:18:58;9.95;;;2.13;;
61407;SDS011;47274;43.054;25.146;2023-05-02T15:21:24;5.95;;;2.67;;
61407;SDS011;47274;43.054;25.146;2023-05-02T15:23:50;6.80;;;2.85;;
61407;SDS011;47274;43.054;25.146;2023-05-02T15:26:15;2.95;;;2.40;;
61407;SDS011;47274;43.054;25.146;2023-05-02T15:28:41;7.13;;;2.90;;
61407;SDS011;47274;43.054;25.146;2023-05-02T15:31:07;7.35;;;2.88;;